Aviation Digital Data Service (ADDS)

Output produced by METARs form (1418 UTC 19 April 2019)
found at http://www.aviationweather.gov/metar/data/
 
METAR text: NGTA 191400Z 30003KT 9999 FEW019TCU SCT040 OVC090 25/25 Q1008
Conditions at: NGTA (TARAWA KIRIBATI , FJ) observed 1400 UTC 19 April 2019
Temperature: 25.0°C (77°F)
Dewpoint: 25.0°C (77°F) [RH = 100%]
Pressure (altimeter): 29.76 inches Hg (1008.0 mb)
Winds: from the WNW (300 degrees) at 3 MPH (3 knots; 1.5 m/s)
Visibility: 6 or more miles (10+ km)
Ceiling: 9000 feet AGL
Clouds: few clouds at 1900 feet AGL
scattered clouds at 4000 feet AGL
overcast cloud deck at 9000 feet AGL
Weather: no significant weather observed at this time

METAR text: NGTA 191300Z 30004KT 9999 SCT019 SCT040 OVC090 25/25 Q1009
Conditions at: NGTA (TARAWA KIRIBATI , FJ) observed 1300 UTC 19 April 2019
Temperature: 25.0°C (77°F)
Dewpoint: 25.0°C (77°F) [RH = 100%]
Pressure (altimeter): 29.79 inches Hg (1009.0 mb)
Winds: from the WNW (300 degrees) at 5 MPH (4 knots; 2.1 m/s)
Visibility: 6 or more miles (10+ km)
Ceiling: 9000 feet AGL
Clouds: scattered clouds at 1900 feet AGL
scattered clouds at 4000 feet AGL
overcast cloud deck at 9000 feet AGL
Weather: no significant weather observed at this time

METAR text: NGTA 191200Z 29005KT 9999 SCT019 SCT040 OVC090 26/25 Q1009
Conditions at: NGTA (TARAWA KIRIBATI , FJ) observed 1200 UTC 19 April 2019
Temperature: 26.0°C (79°F)
Dewpoint: 25.0°C (77°F) [RH = 94%]
Pressure (altimeter): 29.79 inches Hg (1009.0 mb)
Winds: from the WNW (290 degrees) at 6 MPH (5 knots; 2.6 m/s)
Visibility: 6 or more miles (10+ km)
Ceiling: 9000 feet AGL
Clouds: scattered clouds at 1900 feet AGL
scattered clouds at 4000 feet AGL
overcast cloud deck at 9000 feet AGL
Weather: no significant weather observed at this time

METAR text: NGTA 191100Z 26007KT 9999 FEW020 SCT040 OVC090 25/25 Q1010
Conditions at: NGTA (TARAWA KIRIBATI , FJ) observed 1100 UTC 19 April 2019
Temperature: 25.0°C (77°F)
Dewpoint: 25.0°C (77°F) [RH = 100%]
Pressure (altimeter): 29.82 inches Hg (1010.0 mb)
Winds: from the W (260 degrees) at 8 MPH (7 knots; 3.6 m/s)
Visibility: 6 or more miles (10+ km)
Ceiling: 9000 feet AGL
Clouds: few clouds at 2000 feet AGL
scattered clouds at 4000 feet AGL
overcast cloud deck at 9000 feet AGL
Weather: no significant weather observed at this time

METAR text: NGTA 191000Z 27006KT 9999 FEW019 SCT040 BKN100 25/24 Q1010
Conditions at: NGTA (TARAWA KIRIBATI , FJ) observed 1000 UTC 19 April 2019
Temperature: 25.0°C (77°F)
Dewpoint: 24.0°C (75°F) [RH = 94%]
Pressure (altimeter): 29.82 inches Hg (1010.0 mb)
Winds: from the W (270 degrees) at 7 MPH (6 knots; 3.1 m/s)
Visibility: 6 or more miles (10+ km)
Ceiling: 10000 feet AGL
Clouds: few clouds at 1900 feet AGL
scattered clouds at 4000 feet AGL
broken clouds at 10000 feet AGL
Weather: no significant weather observed at this time

METAR text: NGTA 190900Z 27011KT 9999 VCSH FEW019 SCT040 OVC100 25/24 Q1009
Conditions at: NGTA (TARAWA KIRIBATI , FJ) observed 0900 UTC 19 April 2019
Temperature: 25.0°C (77°F)
Dewpoint: 24.0°C (75°F) [RH = 94%]
Pressure (altimeter): 29.79 inches Hg (1009.0 mb)
Winds: from the W (270 degrees) at 13 MPH (11 knots; 5.7 m/s)
Visibility: 6 or more miles (10+ km)
Ceiling: 10000 feet AGL
Clouds: few clouds at 1900 feet AGL
scattered clouds at 4000 feet AGL
overcast cloud deck at 10000 feet AGL
Weather: VCSH  (showers in vicinity)

METAR text: NGTA 190800Z 26005KT 9999 -RA FEW018TCU SCT019 OVC080 24/24 Q1009
Conditions at: NGTA (TARAWA KIRIBATI , FJ) observed 0800 UTC 19 April 2019
Temperature: 24.0°C (75°F)
Dewpoint: 24.0°C (75°F) [RH = 100%]
Pressure (altimeter): 29.79 inches Hg (1009.0 mb)
Winds: from the W (260 degrees) at 6 MPH (5 knots; 2.6 m/s)
Visibility: 6 or more miles (10+ km)
Ceiling: 8000 feet AGL
Clouds: few clouds at 1800 feet AGL
scattered clouds at 1900 feet AGL
overcast cloud deck at 8000 feet AGL
Weather: -RA  (light rain)

METAR text: NGTA 190730Z 26007KT 5000 -RA FEW009 FEW018TCU OVC060 24/23 Q1009
Conditions at: NGTA (TARAWA KIRIBATI , FJ) observed 0730 UTC 19 April 2019
Temperature: 24.0°C (75°F)
Dewpoint: 23.0°C (73°F) [RH = 94%]
Pressure (altimeter): 29.79 inches Hg (1009.0 mb)
Winds: from the W (260 degrees) at 8 MPH (7 knots; 3.6 m/s)
Visibility: 3 miles ( 5 km)
Ceiling: 6000 feet AGL
Clouds: few clouds at 900 feet AGL
few clouds at 1800 feet AGL
overcast cloud deck at 6000 feet AGL
Weather: -RA  (light rain)

METAR text: NGTA 190700 27006KT 3000 RA FEW009 FEW017TCU OVC060 24/24 Q1009
Conditions at: NGTA (TARAWA KIRIBATI , FJ) observed 0700 UTC 19 April 2019
Temperature: 24.0°C (75°F)
Dewpoint: 24.0°C (75°F) [RH = 100%]
Pressure (altimeter): 29.79 inches Hg (1009.0 mb)
Winds: from the W (270 degrees) at 7 MPH (6 knots; 3.1 m/s)
Visibility: 1.86 miles (2.99 km)
Ceiling: 6000 feet AGL
Clouds: few clouds at 900 feet AGL
few clouds at 1700 feet AGL
overcast cloud deck at 6000 feet AGL
Weather: RA  (moderate rain)

METAR text: NGTA 190600 24006KT 1500 RA FEW008 FEW016CB OVC060 24/24 Q1008
Conditions at: NGTA (TARAWA KIRIBATI , FJ) observed 0600 UTC 19 April 2019
Temperature: 24.0°C (75°F)
Dewpoint: 24.0°C (75°F) [RH = 100%]
Pressure (altimeter): 29.76 inches Hg (1008.0 mb)
Winds: from the WSW (240 degrees) at 7 MPH (6 knots; 3.1 m/s)
Visibility: 0.93 miles (1.50 km)
Ceiling: 6000 feet AGL
Clouds: few clouds at 800 feet AGL
few clouds at 1600 feet AGL
overcast cloud deck at 6000 feet AGL
Weather: RA  (moderate rain)

METAR text: NGTA 190500 24011KT 0000 +RA SCT008 SCT014CB OVC060 25/25 Q1008
Conditions at: NGTA (TARAWA KIRIBATI , FJ) observed 0500 UTC 19 April 2019
Temperature: 25.0°C (77°F)
Dewpoint: 25.0°C (77°F) [RH = 100%]
Pressure (altimeter): 29.76 inches Hg (1008.0 mb)
Winds: from the WSW (240 degrees) at 13 MPH (11 knots; 5.7 m/s)
Visibility: 0.00 miles (0.00 km)
Ceiling: 6000 feet AGL
Clouds: scattered clouds at 800 feet AGL
scattered clouds at 1400 feet AGL
overcast cloud deck at 6000 feet AGL
Weather: +RA  (heavy rain)

METAR text: NGTA 190440 23010KT 0000 +RA SCT009 SCT014CB OVC060 25/25 Q1007
Conditions at: NGTA (TARAWA KIRIBATI , FJ) observed 0440 UTC 19 April 2019
Temperature: 25.0°C (77°F)
Dewpoint: 25.0°C (77°F) [RH = 100%]
Pressure (altimeter): 29.73 inches Hg (1007.0 mb)
Winds: from the SW (230 degrees) at 12 MPH (10 knots; 5.1 m/s)
Visibility: 0.00 miles (0.00 km)
Ceiling: 6000 feet AGL
Clouds: scattered clouds at 900 feet AGL
scattered clouds at 1400 feet AGL
overcast cloud deck at 6000 feet AGL
Weather: +RA  (heavy rain)

METAR text: NGTA 190410 23012KT 0500 +SHRA SCT014CB BKN017 OVC080 25/24 Q1007
Conditions at: NGTA (TARAWA KIRIBATI , FJ) observed 0410 UTC 19 April 2019
Temperature: 25.0°C (77°F)
Dewpoint: 24.0°C (75°F) [RH = 94%]
Pressure (altimeter): 29.73 inches Hg (1007.0 mb)
Winds: from the SW (230 degrees) at 14 MPH (12 knots; 6.2 m/s)
Visibility: 0.31 miles (0.50 km)
Ceiling: 1700 feet AGL
Clouds: scattered clouds at 1400 feet AGL
broken clouds at 1700 feet AGL
overcast cloud deck at 8000 feet AGL
Weather: +SHRA  (heavy rain showers)

METAR text: NGTA 190400Z 24007KT 0100 +SHRA SCT015CB BKN018 OVC080 25/24 Q1007
Conditions at: NGTA (TARAWA KIRIBATI , FJ) observed 0400 UTC 19 April 2019
Temperature: 25.0°C (77°F)
Dewpoint: 24.0°C (75°F) [RH = 94%]
Pressure (altimeter): 29.73 inches Hg (1007.0 mb)
Winds: from the WSW (240 degrees) at 8 MPH (7 knots; 3.6 m/s)
Visibility: 0.06 miles (0.10 km)
Ceiling: 1800 feet AGL
Clouds: scattered clouds at 1500 feet AGL
broken clouds at 1800 feet AGL
overcast cloud deck at 8000 feet AGL
Weather: +SHRA  (heavy rain showers)

METAR text: NGTA 190200Z 04004KT 9000 -SHRA FEW016CB SCT017TCU BKN040 29/26 Q1007
Conditions at: NGTA (TARAWA KIRIBATI , FJ) observed 0200 UTC 19 April 2019
Temperature: 29.0°C (84°F)
Dewpoint: 26.0°C (79°F) [RH = 84%]
Pressure (altimeter): 29.73 inches Hg (1007.0 mb)
Winds: from the NE (40 degrees) at 5 MPH (4 knots; 2.1 m/s)
Visibility: 6 miles ( 9 km)
Ceiling: 4000 feet AGL
Clouds: few clouds at 1600 feet AGL
scattered clouds at 1700 feet AGL
broken clouds at 4000 feet AGL
Weather: -SHRA  (light rain showers)

METAR text: NGTA 190100Z 36007KT 9999 VCSH FEW016CB FEW018TCU BKN100 30/26 Q1008
Conditions at: NGTA (TARAWA KIRIBATI , FJ) observed 0100 UTC 19 April 2019
Temperature: 30.0°C (86°F)
Dewpoint: 26.0°C (79°F) [RH = 79%]
Pressure (altimeter): 29.76 inches Hg (1008.0 mb)
Winds: from the N (360 degrees) at 8 MPH (7 knots; 3.6 m/s)
Visibility: 6 or more miles (10+ km)
Ceiling: 10000 feet AGL
Clouds: few clouds at 1600 feet AGL
few clouds at 1800 feet AGL
broken clouds at 10000 feet AGL
Weather: VCSH  (showers in vicinity)

METAR text: NGTA 190000Z 01006KT 9999 -RA FEW016CB FEW018TCU SCT040 BKN100 29/26 Q1009
Conditions at: NGTA (TARAWA KIRIBATI , FJ) observed 0000 UTC 19 April 2019
Temperature: 29.0°C (84°F)
Dewpoint: 26.0°C (79°F) [RH = 84%]
Pressure (altimeter): 29.79 inches Hg (1009.0 mb)
Winds: from the N (10 degrees) at 7 MPH (6 knots; 3.1 m/s)
Visibility: 6 or more miles (10+ km)
Ceiling: 10000 feet AGL
Clouds: few clouds at 1600 feet AGL
few clouds at 1800 feet AGL
scattered clouds at 4000 feet AGL
broken clouds at 10000 feet AGL
Weather: -RA  (light rain)

METAR text: NGTA 182300Z 02009KT 9999 2000N SHRA FEW015CB SCT018TCU BKN300 30/26 Q1010
Conditions at: NGTA (TARAWA KIRIBATI , FJ) observed 2300 UTC 18 April 2019
Temperature: 30.0°C (86°F)
Dewpoint: 26.0°C (79°F) [RH = 79%]
Pressure (altimeter): 29.82 inches Hg (1010.0 mb)
Winds: from the NNE (20 degrees) at 10 MPH (9 knots; 4.6 m/s)
Visibility: 6 or more miles (10+ km)
Ceiling: 30000 feet AGL
Clouds: few clouds at 1500 feet AGL
scattered clouds at 1800 feet AGL
broken clouds at 30000 feet AGL
Weather: SHRA  (rain showers)

METAR text: NGTA 182200Z 33005KT 280V010 9999 VCSH FEW017CB SCT100 BKN300 29/26 Q1010
Conditions at: NGTA (TARAWA KIRIBATI , FJ) observed 2200 UTC 18 April 2019
Temperature: 29.0°C (84°F)
Dewpoint: 26.0°C (79°F) [RH = 84%]
Pressure (altimeter): 29.82 inches Hg (1010.0 mb)
Winds: from the NNW (330 degrees) at 6 MPH (5 knots; 2.6 m/s)
Visibility: 6 or more miles (10+ km)
Ceiling: 30000 feet AGL
Clouds: few clouds at 1700 feet AGL
scattered clouds at 10000 feet AGL
broken clouds at 30000 feet AGL
Weather: VCSH  (showers in vicinity)

METAR text: NGTA 182100Z 34003KT 9999 FEW017CB SCT040 BKN100 28/26 Q1010 RMK ADJ SHWRS
Conditions at: NGTA (TARAWA KIRIBATI , FJ) observed 2100 UTC 18 April 2019
Temperature: 28.0°C (82°F)
Dewpoint: 26.0°C (79°F) [RH = 89%]
Pressure (altimeter): 29.82 inches Hg (1010.0 mb)
Winds: from the NNW (340 degrees) at 3 MPH (3 knots; 1.5 m/s)
Visibility: 6 or more miles (10+ km)
Ceiling: 10000 feet AGL
Clouds: few clouds at 1700 feet AGL
scattered clouds at 4000 feet AGL
broken clouds at 10000 feet AGL
Weather: no significant weather observed at this time

METAR text: NGTA 182000Z 01004KT 9999 FEW017CB SCT100 BKN300 27/26 Q1009 RMK CB TOPS AT W
Conditions at: NGTA (TARAWA KIRIBATI , FJ) observed 2000 UTC 18 April 2019
Temperature: 27.0°C (81°F)
Dewpoint: 26.0°C (79°F) [RH = 94%]
Pressure (altimeter): 29.79 inches Hg (1009.0 mb)
Winds: from the N (10 degrees) at 5 MPH (4 knots; 2.1 m/s)
Visibility: 6 or more miles (10+ km)
Ceiling: 30000 feet AGL
Clouds: few clouds at 1700 feet AGL
scattered clouds at 10000 feet AGL
broken clouds at 30000 feet AGL
Weather: no significant weather observed at this time

METAR text: NGTA 181100Z 05005KT 9999 FEW016CB SCT300 28/26 Q1010
Conditions at: NGTA (TARAWA KIRIBATI , FJ) observed 1100 UTC 18 April 2019
Temperature: 28.0°C (82°F)
Dewpoint: 26.0°C (79°F) [RH = 89%]
Pressure (altimeter): 29.82 inches Hg (1010.0 mb)
Winds: from the NE (50 degrees) at 6 MPH (5 knots; 2.6 m/s)
Visibility: 6 or more miles (10+ km)
Ceiling: at least 12,000 feet AGL
Clouds: few clouds at 1600 feet AGL
scattered clouds at 30000 feet AGL
Weather: no significant weather observed at this time

METAR text: NGTA 181000Z 07004KT 9999 FEW016CB FEW018TCU BKN300 28/26 Q1010
Conditions at: NGTA (TARAWA KIRIBATI , FJ) observed 1000 UTC 18 April 2019
Temperature: 28.0°C (82°F)
Dewpoint: 26.0°C (79°F) [RH = 89%]
Pressure (altimeter): 29.82 inches Hg (1010.0 mb)
Winds: from the ENE (70 degrees) at 5 MPH (4 knots; 2.1 m/s)
Visibility: 6 or more miles (10+ km)
Ceiling: 30000 feet AGL
Clouds: few clouds at 1600 feet AGL
few clouds at 1800 feet AGL
broken clouds at 30000 feet AGL
Weather: no significant weather observed at this time

METAR text: NGTA 180900Z 07003KT 9999 VCSH FEW018TCU SCT020 29/25 Q1010
Conditions at: NGTA (TARAWA KIRIBATI , FJ) observed 0900 UTC 18 April 2019
Temperature: 29.0°C (84°F)
Dewpoint: 25.0°C (77°F) [RH = 79%]
Pressure (altimeter): 29.82 inches Hg (1010.0 mb)
Winds: from the ENE (70 degrees) at 3 MPH (3 knots; 1.5 m/s)
Visibility: 6 or more miles (10+ km)
Ceiling: at least 12,000 feet AGL
Clouds: few clouds at 1800 feet AGL
scattered clouds at 2000 feet AGL
Weather: VCSH  (showers in vicinity)

METAR text: NGTA 180300Z 09006KT 9999 FEW016CB FEW018TCU 30/26 Q1007
Conditions at: NGTA (TARAWA KIRIBATI , FJ) observed 0300 UTC 18 April 2019
Temperature: 30.0°C (86°F)
Dewpoint: 26.0°C (79°F) [RH = 79%]
Pressure (altimeter): 29.73 inches Hg (1007.0 mb)
Winds: from the E (90 degrees) at 7 MPH (6 knots; 3.1 m/s)
Visibility: 6 or more miles (10+ km)
Ceiling: at least 12,000 feet AGL
Clouds: few clouds at 1600 feet AGL
few clouds at 1800 feet AGL
Weather: no significant weather observed at this time

Forecast for: NGTA (TARAWA KIRIBATI , FJ)
Text: TAF NGTA 191122Z 1912/2012 32008KT 9000 -SHRA SCT015 BKN030 OVC080
Forecast period: 1200 UTC 19 April 2019 to 1200 UTC 20 April 2019
Forecast type: FROM: standard forecast or significant change
Winds: from the NW (320 degrees) at 9 MPH (8 knots; 4.1 m/s)
Visibility: 6 miles (9 km)
Ceiling: 3000 feet AGL
Clouds: scattered clouds at 1500 feet AGL
broken clouds at 3000 feet AGL
overcast cloud deck at 8000 feet AGL
Weather: -SHRA  (light rain showers)
Text: TEMPO 1912/2012 2000 +TSRA BKN015 FEW015CB
Forecast period: 1200 UTC 19 April 2019 to 1200 UTC 20 April 2019
Forecast type: TEMPORARY: The following changes expected for less than half the time period
Visibility: 1.24 miles (2.00 km)
Ceiling: 1500 feet AGL
Clouds: broken clouds at 1500 feet AGL
few clouds at 1500 feet AGL
Weather: +TSRA  (heavy rain associated with thunderstorm(s))